createdAt,value
2023-11-27T00:21:40.389Z,3.5
2023-11-27T00:51:40.474Z,3.5
2023-11-27T01:21:40.388Z,3.5
2023-11-27T01:51:40.384Z,3.5
2023-11-27T02:21:40.408Z,3.5
2023-11-27T02:51:40.406Z,3.5
2023-11-27T03:21:40.402Z,3.5
2023-11-27T03:51:40.407Z,3.5
2023-11-27T04:21:40.419Z,3.5
2023-11-27T04:51:40.430Z,3.5
2023-11-27T05:21:40.413Z,3.5
2023-11-27T05:51:40.433Z,3.5
2023-11-27T06:21:40.422Z,3.5
2023-11-27T06:51:40.430Z,3.5
2023-11-27T07:21:40.459Z,3.5
2023-11-27T07:51:40.453Z,3.5
2023-11-27T08:21:40.454Z,3.5
2023-11-27T08:51:40.464Z,3.5
2023-11-27T09:21:40.468Z,3.5
2023-11-27T09:51:40.474Z,3.5
2023-11-27T10:21:40.503Z,3.5
2023-11-27T10:51:40.483Z,3.5
2023-11-27T11:21:40.481Z,3.5
2023-11-27T11:51:40.496Z,3.5
2023-11-27T12:21:40.484Z,3.5
2023-11-27T12:51:40.493Z,3.5
2023-11-27T13:21:40.492Z,4.75
2023-11-27T13:51:40.488Z,4.13
2023-11-27T14:21:40.501Z,2.94
2023-11-27T14:51:41.236Z,2.13
2023-11-27T15:21:40.511Z,1.88
2023-11-27T15:51:42.648Z,1.56
2023-11-27T16:21:40.527Z,1.63
2023-11-27T16:51:40.535Z,1.69
2023-11-27T17:21:43.045Z,1.63
2023-11-27T17:51:40.548Z,1.25
2023-11-27T18:21:40.558Z,1.06
2023-11-27T18:51:40.568Z,1.25
2023-11-27T19:21:40.593Z,1.19
2023-11-27T19:51:40.568Z,1
2023-11-27T20:21:40.571Z,0.88
2023-11-27T20:51:40.595Z,0.75
2023-11-27T21:21:40.565Z,0.88
2023-11-27T21:51:40.600Z,0.88
2023-11-27T22:21:40.590Z,0.88
2023-11-27T22:51:40.585Z,1.06
2023-11-27T23:21:40.610Z,1.19
2023-11-27T23:51:40.604Z,1.38
